Reno, NV

12:59 AM PDT on July 30, 2016 (GMT -0700)
Reno NW, Las Brisas/Ariel | | Change Station

Elev 5155 ft 39.54 °N, 119.88 °W | Updated 24 seconds ago

Clear
Clear
79.5 °F
Feels Like 79.5 °F
N
8.9
Wind Variable Wind from North
Gusts 11.0 mph

Today
High -- | Low -- °F
--% Chance of Precip.
Yesterday
High -- | Low -- °F
Precip. -- in
Pressure 29.81 in
Visibility 10.0 miles
Clouds Clear
Dew Point 40.6 °F
Humidity 25%
Rainfall 0.00 in
Snow Depth Not available.
5:57 AM 8:13 PM
Waning Crescent, 15% visible
METAR KRNO 300755Z 22004KT 10SM CLR 27/06 A3002 RMK AO2 SLP092 T02670056 403940211
Pressure 29.81 in
Visibility 10.0 miles
Clouds Clear
Dew Point 40.6 °F
Humidity 25%
Rainfall 0.00 in
Snow Depth Not available.
5:57 AM 8:13 PM
Waning Crescent, 15% visible
METAR KRNO 300755Z 22004KT 10SM CLR 27/06 A3002 RMK AO2 SLP092 T02670056 403940211

10-Day Weather Forecast

Almanac

Astronomy

Jul. 30, 2016 Rise Set
Actual Time
Civil Twilight
Nautical Twilight
Astronomical Twilight
Moon
Length of Visible Light
Length of Day
Tomorrow will be .
, % of the Moon is Illuminated

Today's Extremes

State Highs State Lows

Community

WunderPhotos

Upload Photos

1,928,508 photos uploaded!

WunderBlog® & News

Nearby

Air Quality

  Air Quality AQ Index Pollutant
Not available.

Snow Depth

Station Depth Elevation

Earthquake Activity

City Distance Mag. Time & Date
Minimum magnitude displayed is 2.5.

Coastal Water Temperatures

Place Temperature

Stations

Nearby Weather Stations

Station Location Temp. Windchill Dew Point Humidity Wind Precip. Elev Updated Type
                   

Watches & Warnings

There are currently no watches in effect.